Bainbridge Island, Washington
Current Conditions -  °F | °C
As of 11:53 PM on Wednesday 26 Nov 2014 (Local Time) from KBFI Reporting Station
Overcast Overcast  
Wind Chill: 61°   Ceiling: 6000
Heat Index: 61°   Visibility: 10mi
Dew Point: 48°   Wind: 13mph
Humidity: 62%   Direction: 170°S
Pressure: 29.87"   Gusts: NA
Location:  47.65°N, 122.53°W
Report Text: KBFI 270753Z 17011KT 10SM BKN060 OVC075 16/09 A2987 RMK AO2 SLP114 T01610089 401670144
Loading
Personal Weather Stations






























Interactive Weather Map New forecast layout! Learn more

10-Day Weather Forecast

Advertisements
Track Severe Weather on mobile